sensor_id;sensor_type;location;lat;lon;timestamp;temperature;humidity
15241;DHT22;7723;52.170;9.978;2024-01-15T00:00:29;1.50;99.90
15241;DHT22;7723;52.170;9.978;2024-01-15T00:02:56;1.60;99.90
15241;DHT22;7723;52.170;9.978;2024-01-15T00:05:24;1.50;99.90
15241;DHT22;7723;52.170;9.978;2024-01-15T00:07:51;1.50;99.90
15241;DHT22;7723;52.170;9.978;2024-01-15T00:10:18;1.40;99.90
15241;DHT22;7723;52.170;9.978;2024-01-15T00:12:45;1.40;99.90
15241;DHT22;7723;52.170;9.978;2024-01-15T00:15:12;1.40;99.90
15241;DHT22;7723;52.170;9.978;2024-01-15T00:17:40;1.40;99.90
15241;DHT22;7723;52.170;9.978;2024-01-15T00:20:08;1.40;99.90
15241;DHT22;7723;52.170;9.978;2024-01-15T00:22:35;1.40;99.90
15241;DHT22;7723;52.170;9.978;2024-01-15T00:25:03;1.40;99.90
15241;DHT22;7723;52.170;9.978;2024-01-15T00:27:30;1.40;99.90
15241;DHT22;7723;52.170;9.978;2024-01-15T00:29:57;1.30;99.90
15241;DHT22;7723;52.170;9.978;2024-01-15T00:32:24;1.40;99.90
15241;DHT22;7723;52.170;9.978;2024-01-15T00:34:52;1.30;99.90
15241;DHT22;7723;52.170;9.978;2024-01-15T00:37:20;1.30;99.90
15241;DHT22;7723;52.170;9.978;2024-01-15T00:39:47;1.30;99.90
15241;DHT22;7723;52.170;9.978;2024-01-15T00:42:14;1.30;99.90
15241;DHT22;7723;52.170;9.978;2024-01-15T00:44:42;1.20;99.90
15241;DHT22;7723;52.170;9.978;2024-01-15T00:47:09;1.20;99.90
15241;DHT22;7723;52.170;9.978;2024-01-15T00:49:36;1.30;99.90
15241;DHT22;7723;52.170;9.978;2024-01-15T00:52:05;1.30;99.90
15241;DHT22;7723;52.170;9.978;2024-01-15T00:54:32;1.30;99.90
15241;DHT22;7723;52.170;9.978;2024-01-15T00:56:59;1.30;99.90
15241;DHT22;7723;52.170;9.978;2024-01-15T00:59:26;1.30;99.90
15241;DHT22;7723;52.170;9.978;2024-01-15T01:01:53;1.30;99.90
15241;DHT22;7723;52.170;9.978;2024-01-15T01:04:20;1.20;99.90
15241;DHT22;7723;52.170;9.978;2024-01-15T01:06:47;1.20;99.90
15241;DHT22;7723;52.170;9.978;2024-01-15T01:09:16;1.20;99.90
15241;DHT22;7723;52.170;9.978;2024-01-15T01:11:43;1.10;99.90
15241;DHT22;7723;52.170;9.978;2024-01-15T01:14:10;1.10;99.90
15241;DHT22;7723;52.170;9.978;2024-01-15T01:16:37;1.10;99.90
15241;DHT22;7723;52.170;9.978;2024-01-15T01:19:06;1.00;99.90
15241;DHT22;7723;52.170;9.978;2024-01-15T01:21:33;1.00;99.90
15241;DHT22;7723;52.170;9.978;2024-01-15T01:24:00;1.00;99.90
15241;DHT22;7723;52.170;9.978;2024-01-15T01:26:29;1.00;99.90
15241;DHT22;7723;52.170;9.978;2024-01-15T01:28:56;1.00;99.90
15241;DHT22;7723;52.170;9.978;2024-01-15T01:31:24;1.10;99.90
15241;DHT22;7723;52.170;9.978;2024-01-15T01:33:52;1.00;99.90
15241;DHT22;7723;52.170;9.978;2024-01-15T01:36:19;1.00;99.90
15241;DHT22;7723;52.170;9.978;2024-01-15T01:38:46;1.00;99.90
15241;DHT22;7723;52.170;9.978;2024-01-15T01:41:13;1.00;99.90
15241;DHT22;7723;52.170;9.978;2024-01-15T01:43:42;0.90;99.90
15241;DHT22;7723;52.170;9.978;2024-01-15T01:46:10;0.90;99.90
15241;DHT22;7723;52.170;9.978;2024-01-15T01:48:37;0.90;99.90
15241;DHT22;7723;52.170;9.978;2024-01-15T01:51:04;0.90;99.90
15241;DHT22;7723;52.170;9.978;2024-01-15T01:53:33;0.90;99.90
15241;DHT22;7723;52.170;9.978;2024-01-15T01:56:02;1.00;99.90
15241;DHT22;7723;52.170;9.978;2024-01-15T01:58:31;1.00;99.90
15241;DHT22;7723;52.170;9.978;2024-01-15T02:01:00;1.00;99.90
15241;DHT22;7723;52.170;9.978;2024-01-15T02:03:29;1.00;99.90
15241;DHT22;7723;52.170;9.978;2024-01-15T02:05:57;1.00;99.90
15241;DHT22;7723;52.170;9.978;2024-01-15T02:08:25;0.90;99.90
15241;DHT22;7723;52.170;9.978;2024-01-15T02:10:53;1.00;99.90
15241;DHT22;7723;52.170;9.978;2024-01-15T02:13:20;1.00;99.90
15241;DHT22;7723;52.170;9.978;2024-01-15T02:15:47;1.00;99.90
15241;DHT22;7723;52.170;9.978;2024-01-15T02:18:16;1.00;99.90
15241;DHT22;7723;52.170;9.978;2024-01-15T02:20:43;1.10;99.90
15241;DHT22;7723;52.170;9.978;2024-01-15T02:23:13;1.10;99.90
15241;DHT22;7723;52.170;9.978;2024-01-15T02:25:44;1.10;99.90
15241;DHT22;7723;52.170;9.978;2024-01-15T02:28:13;1.20;99.90
15241;DHT22;7723;52.170;9.978;2024-01-15T02:30:41;1.30;99.90
15241;DHT22;7723;52.170;9.978;2024-01-15T02:33:09;1.30;99.90
15241;DHT22;7723;52.170;9.978;2024-01-15T02:35:36;1.30;99.90
15241;DHT22;7723;52.170;9.978;2024-01-15T02:38:03;1.40;99.90
15241;DHT22;7723;52.170;9.978;2024-01-15T02:40:32;1.30;99.90
15241;DHT22;7723;52.170;9.978;2024-01-15T02:42:59;1.40;99.90
15241;DHT22;7723;52.170;9.978;2024-01-15T02:45:27;1.40;99.90
15241;DHT22;7723;52.170;9.978;2024-01-15T02:47:54;1.50;99.90
15241;DHT22;7723;52.170;9.978;2024-01-15T02:50:21;1.40;99.90
15241;DHT22;7723;52.170;9.978;2024-01-15T02:52:48;1.50;99.90
15241;DHT22;7723;52.170;9.978;2024-01-15T02:55:15;1.40;99.90
15241;DHT22;7723;52.170;9.978;2024-01-15T02:57:44;1.40;99.90
15241;DHT22;7723;52.170;9.978;2024-01-15T03:00:11;1.40;99.90
15241;DHT22;7723;52.170;9.978;2024-01-15T03:02:39;1.40;99.90
15241;DHT22;7723;52.170;9.978;2024-01-15T03:05:09;1.40;99.90
15241;DHT22;7723;52.170;9.978;2024-01-15T03:07:36;1.50;99.90
15241;DHT22;7723;52.170;9.978;2024-01-15T03:10:05;1.50;99.90
15241;DHT22;7723;52.170;9.978;2024-01-15T03:12:32;1.50;99.90
15241;DHT22;7723;52.170;9.978;2024-01-15T03:15:01;1.50;99.90
15241;DHT22;7723;52.170;9.978;2024-01-15T03:17:28;1.50;99.90
15241;DHT22;7723;52.170;9.978;2024-01-15T03:19:55;1.50;99.90
15241;DHT22;7723;52.170;9.978;2024-01-15T03:22:22;1.50;99.90
15241;DHT22;7723;52.170;9.978;2024-01-15T03:24:50;1.50;99.90
15241;DHT22;7723;52.170;9.978;2024-01-15T03:27:17;1.50;99.90
15241;DHT22;7723;52.170;9.978;2024-01-15T03:29:44;1.40;99.90
15241;DHT22;7723;52.170;9.978;2024-01-15T03:32:12;1.40;99.90
15241;DHT22;7723;52.170;9.978;2024-01-15T03:34:41;1.50;99.90
15241;DHT22;7723;52.170;9.978;2024-01-15T03:37:08;1.40;99.90
15241;DHT22;7723;52.170;9.978;2024-01-15T03:39:35;1.40;99.90
15241;DHT22;7723;52.170;9.978;2024-01-15T03:42:02;1.40;99.90
15241;DHT22;7723;52.170;9.978;2024-01-15T03:44:30;1.50;99.90
15241;DHT22;7723;52.170;9.978;2024-01-15T03:46:57;1.50;99.90
15241;DHT22;7723;52.170;9.978;2024-01-15T03:49:25;1.50;99.90
15241;DHT22;7723;52.170;9.978;2024-01-15T03:51:53;1.50;99.90
15241;DHT22;7723;52.170;9.978;2024-01-15T03:54:20;1.50;99.90
15241;DHT22;7723;52.170;9.978;2024-01-15T03:56:47;1.50;99.90
15241;DHT22;7723;52.170;9.978;2024-01-15T03:59:14;1.50;99.90
15241;DHT22;7723;52.170;9.978;2024-01-15T04:01:41;1.50;99.90
15241;DHT22;7723;52.170;9.978;2024-01-15T04:04:14;1.60;99.90
15241;DHT22;7723;52.170;9.978;2024-01-15T04:06:43;1.60;99.90
15241;DHT22;7723;52.170;9.978;2024-01-15T04:09:11;1.60;99.90
15241;DHT22;7723;52.170;9.978;2024-01-15T04:11:38;1.60;99.90
15241;DHT22;7723;52.170;9.978;2024-01-15T04:14:05;1.60;99.90
15241;DHT22;7723;52.170;9.978;2024-01-15T04:16:32;1.60;99.90
15241;DHT22;7723;52.170;9.978;2024-01-15T04:19:00;1.60;99.90
15241;DHT22;7723;52.170;9.978;2024-01-15T04:21:27;1.60;99.90
15241;DHT22;7723;52.170;9.978;2024-01-15T04:23:55;1.60;99.90
15241;DHT22;7723;52.170;9.978;2024-01-15T04:26:22;1.60;99.90
15241;DHT22;7723;52.170;9.978;2024-01-15T04:28:49;1.60;99.90
15241;DHT22;7723;52.170;9.978;2024-01-15T04:31:23;1.70;99.90
15241;DHT22;7723;52.170;9.978;2024-01-15T04:33:50;1.70;99.90
15241;DHT22;7723;52.170;9.978;2024-01-15T04:36:17;1.70;99.90
15241;DHT22;7723;52.170;9.978;2024-01-15T04:38:45;1.70;99.90
15241;DHT22;7723;52.170;9.978;2024-01-15T04:41:14;1.70;99.90
15241;DHT22;7723;52.170;9.978;2024-01-15T04:43:42;1.70;99.90
15241;DHT22;7723;52.170;9.978;2024-01-15T04:46:09;1.70;99.90
15241;DHT22;7723;52.170;9.978;2024-01-15T04:48:36;1.70;99.90
15241;DHT22;7723;52.170;9.978;2024-01-15T04:51:04;1.70;99.90
15241;DHT22;7723;52.170;9.978;2024-01-15T04:53:32;1.60;99.90
15241;DHT22;7723;52.170;9.978;2024-01-15T04:56:00;1.70;99.90
15241;DHT22;7723;52.170;9.978;2024-01-15T04:58:28;1.70;99.90
15241;DHT22;7723;52.170;9.978;2024-01-15T05:00:55;1.70;99.90
15241;DHT22;7723;52.170;9.978;2024-01-15T05:03:22;1.70;99.90
15241;DHT22;7723;52.170;9.978;2024-01-15T05:05:49;1.70;99.90
15241;DHT22;7723;52.170;9.978;2024-01-15T05:08:16;1.60;99.90
15241;DHT22;7723;52.170;9.978;2024-01-15T05:10:44;1.60;99.90
15241;DHT22;7723;52.170;9.978;2024-01-15T05:13:11;1.60;99.90
15241;DHT22;7723;52.170;9.978;2024-01-15T05:15:40;1.70;99.90
15241;DHT22;7723;52.170;9.978;2024-01-15T05:18:07;1.60;99.90
15241;DHT22;7723;52.170;9.978;2024-01-15T05:20:34;1.60;99.90
15241;DHT22;7723;52.170;9.978;2024-01-15T05:23:01;1.50;99.90
15241;DHT22;7723;52.170;9.978;2024-01-15T05:25:28;1.50;99.90
15241;DHT22;7723;52.170;9.978;2024-01-15T05:27:55;1.40;99.90
15241;DHT22;7723;52.170;9.978;2024-01-15T05:30:22;1.40;99.90
15241;DHT22;7723;52.170;9.978;2024-01-15T05:32:51;1.40;99.90
15241;DHT22;7723;52.170;9.978;2024-01-15T05:35:18;1.50;99.90
15241;DHT22;7723;52.170;9.978;2024-01-15T05:37:45;1.40;99.90
15241;DHT22;7723;52.170;9.978;2024-01-15T05:40:13;1.50;99.90
15241;DHT22;7723;52.170;9.978;2024-01-15T05:42:41;1.50;99.90
15241;DHT22;7723;52.170;9.978;2024-01-15T05:45:08;1.40;99.90
15241;DHT22;7723;52.170;9.978;2024-01-15T05:47:36;1.40;99.90
15241;DHT22;7723;52.170;9.978;2024-01-15T05:50:05;1.30;99.90
15241;DHT22;7723;52.170;9.978;2024-01-15T05:52:32;1.30;99.90
15241;DHT22;7723;52.170;9.978;2024-01-15T05:54:59;1.30;99.90
15241;DHT22;7723;52.170;9.978;2024-01-15T05:57:26;1.30;99.90
15241;DHT22;7723;52.170;9.978;2024-01-15T05:59:54;1.20;99.90
15241;DHT22;7723;52.170;9.978;2024-01-15T06:02:21;1.20;99.90
15241;DHT22;7723;52.170;9.978;2024-01-15T06:04:48;1.20;99.90
15241;DHT22;7723;52.170;9.978;2024-01-15T06:07:16;1.20;99.90
15241;DHT22;7723;52.170;9.978;2024-01-15T06:09:43;1.20;99.90
15241;DHT22;7723;52.170;9.978;2024-01-15T06:12:10;1.20;99.90
15241;DHT22;7723;52.170;9.978;2024-01-15T06:14:38;1.20;99.90
15241;DHT22;7723;52.170;9.978;2024-01-15T06:17:06;1.20;99.90
15241;DHT22;7723;52.170;9.978;2024-01-15T06:19:33;1.20;99.90
15241;DHT22;7723;52.170;9.978;2024-01-15T06:22:01;1.20;99.90
15241;DHT22;7723;52.170;9.978;2024-01-15T06:24:29;1.20;99.90
15241;DHT22;7723;52.170;9.978;2024-01-15T06:26:56;1.20;99.90
15241;DHT22;7723;52.170;9.978;2024-01-15T06:29:26;1.30;99.90
15241;DHT22;7723;52.170;9.978;2024-01-15T06:31:53;1.30;99.90
15241;DHT22;7723;52.170;9.978;2024-01-15T06:34:20;1.30;99.90
15241;DHT22;7723;52.170;9.978;2024-01-15T06:36:47;1.30;99.90
15241;DHT22;7723;52.170;9.978;2024-01-15T06:39:14;1.30;99.90
15241;DHT22;7723;52.170;9.978;2024-01-15T06:41:43;1.30;99.90
15241;DHT22;7723;52.170;9.978;2024-01-15T06:44:10;1.30;99.90
15241;DHT22;7723;52.170;9.978;2024-01-15T06:46:42;1.30;99.90
15241;DHT22;7723;52.170;9.978;2024-01-15T06:49:09;1.30;99.90
15241;DHT22;7723;52.170;9.978;2024-01-15T06:51:36;1.30;99.90
15241;DHT22;7723;52.170;9.978;2024-01-15T06:54:04;1.30;99.90
15241;DHT22;7723;52.170;9.978;2024-01-15T06:56:31;1.30;99.90
15241;DHT22;7723;52.170;9.978;2024-01-15T06:59:00;1.30;99.90
15241;DHT22;7723;52.170;9.978;2024-01-15T07:01:27;1.40;99.90
15241;DHT22;7723;52.170;9.978;2024-01-15T07:03:54;1.40;99.90
15241;DHT22;7723;52.170;9.978;2024-01-15T07:06:21;1.40;99.90
15241;DHT22;7723;52.170;9.978;2024-01-15T07:08:49;1.40;99.90
15241;DHT22;7723;52.170;9.978;2024-01-15T07:11:16;1.50;99.90
15241;DHT22;7723;52.170;9.978;2024-01-15T07:13:43;1.50;99.90
15241;DHT22;7723;52.170;9.978;2024-01-15T07:16:12;1.50;99.90
15241;DHT22;7723;52.170;9.978;2024-01-15T07:18:39;1.50;99.90
15241;DHT22;7723;52.170;9.978;2024-01-15T07:21:06;1.50;99.90
15241;DHT22;7723;52.170;9.978;2024-01-15T07:23:33;1.50;99.90
15241;DHT22;7723;52.170;9.978;2024-01-15T07:26:01;1.50;99.90
15241;DHT22;7723;52.170;9.978;2024-01-15T07:28:29;1.50;99.90
15241;DHT22;7723;52.170;9.978;2024-01-15T07:30:57;1.50;99.90
15241;DHT22;7723;52.170;9.978;2024-01-15T07:33:28;1.50;99.90
15241;DHT22;7723;52.170;9.978;2024-01-15T07:35:55;1.40;99.90
15241;DHT22;7723;52.170;9.978;2024-01-15T07:38:22;1.40;99.90
15241;DHT22;7723;52.170;9.978;2024-01-15T07:40:49;1.40;99.90
15241;DHT22;7723;52.170;9.978;2024-01-15T07:43:16;1.50;99.90
15241;DHT22;7723;52.170;9.978;2024-01-15T07:45:43;1.50;99.90
15241;DHT22;7723;52.170;9.978;2024-01-15T07:48:11;1.40;99.90
15241;DHT22;7723;52.170;9.978;2024-01-15T07:50:39;1.40;99.90
15241;DHT22;7723;52.170;9.978;2024-01-15T07:53:06;1.40;99.90
15241;DHT22;7723;52.170;9.978;2024-01-15T07:55:33;1.40;99.90
15241;DHT22;7723;52.170;9.978;2024-01-15T07:58:00;1.30;99.90
15241;DHT22;7723;52.170;9.978;2024-01-15T08:00:27;1.30;99.90
15241;DHT22;7723;52.170;9.978;2024-01-15T08:02:54;1.40;99.90
15241;DHT22;7723;52.170;9.978;2024-01-15T08:05:21;1.40;99.90
15241;DHT22;7723;52.170;9.978;2024-01-15T08:07:50;1.40;99.90
15241;DHT22;7723;52.170;9.978;2024-01-15T08:10:17;1.40;99.90
15241;DHT22;7723;52.170;9.978;2024-01-15T08:12:44;1.40;99.90
15241;DHT22;7723;52.170;9.978;2024-01-15T08:15:11;1.40;99.90
15241;DHT22;7723;52.170;9.978;2024-01-15T08:17:38;1.40;99.90
15241;DHT22;7723;52.170;9.978;2024-01-15T08:20:06;1.40;99.90
15241;DHT22;7723;52.170;9.978;2024-01-15T08:22:34;1.50;99.90
15241;DHT22;7723;52.170;9.978;2024-01-15T08:25:03;1.50;99.90
15241;DHT22;7723;52.170;9.978;2024-01-15T08:27:30;1.60;99.90
15241;DHT22;7723;52.170;9.978;2024-01-15T08:29:57;1.60;99.90
15241;DHT22;7723;52.170;9.978;2024-01-15T08:32:24;1.60;99.90
15241;DHT22;7723;52.170;9.978;2024-01-15T08:34:52;1.50;99.90
15241;DHT22;7723;52.170;9.978;2024-01-15T08:37:19;1.50;99.90
15241;DHT22;7723;52.170;9.978;2024-01-15T08:39:46;1.60;99.90
15241;DHT22;7723;52.170;9.978;2024-01-15T08:42:15;1.60;99.90
15241;DHT22;7723;52.170;9.978;2024-01-15T08:44:42;1.60;99.90
15241;DHT22;7723;52.170;9.978;2024-01-15T08:47:09;1.60;99.90
15241;DHT22;7723;52.170;9.978;2024-01-15T08:49:36;1.60;99.90
15241;DHT22;7723;52.170;9.978;2024-01-15T08:52:04;1.60;99.90
15241;DHT22;7723;52.170;9.978;2024-01-15T08:54:31;1.60;99.90
15241;DHT22;7723;52.170;9.978;2024-01-15T08:56:58;1.70;99.90
15241;DHT22;7723;52.170;9.978;2024-01-15T08:59:26;1.70;99.90
15241;DHT22;7723;52.170;9.978;2024-01-15T09:01:54;1.70;99.90
15241;DHT22;7723;52.170;9.978;2024-01-15T09:04:22;1.70;99.90
15241;DHT22;7723;52.170;9.978;2024-01-15T09:06:50;1.70;99.90
15241;DHT22;7723;52.170;9.978;2024-01-15T09:09:17;1.60;99.90
15241;DHT22;7723;52.170;9.978;2024-01-15T09:11:45;1.60;99.90
15241;DHT22;7723;52.170;9.978;2024-01-15T09:14:13;1.70;99.90
15241;DHT22;7723;52.170;9.978;2024-01-15T09:16:41;1.70;99.90
15241;DHT22;7723;52.170;9.978;2024-01-15T09:19:09;1.70;99.90
15241;DHT22;7723;52.170;9.978;2024-01-15T09:21:38;1.70;99.90
15241;DHT22;7723;52.170;9.978;2024-01-15T09:24:05;1.80;99.90
15241;DHT22;7723;52.170;9.978;2024-01-15T09:26:32;1.80;99.90
15241;DHT22;7723;52.170;9.978;2024-01-15T09:28:59;1.90;99.90
15241;DHT22;7723;52.170;9.978;2024-01-15T09:31:28;1.90;99.90
15241;DHT22;7723;52.170;9.978;2024-01-15T09:33:57;2.00;99.90
15241;DHT22;7723;52.170;9.978;2024-01-15T09:36:25;2.00;99.90
15241;DHT22;7723;52.170;9.978;2024-01-15T09:38:52;2.00;99.90
15241;DHT22;7723;52.170;9.978;2024-01-15T09:41:20;2.00;99.90
15241;DHT22;7723;52.170;9.978;2024-01-15T09:43:47;2.10;99.90
15241;DHT22;7723;52.170;9.978;2024-01-15T09:46:15;2.20;99.90
15241;DHT22;7723;52.170;9.978;2024-01-15T09:48:43;2.40;99.90
15241;DHT22;7723;52.170;9.978;2024-01-15T09:51:12;2.50;99.90
15241;DHT22;7723;52.170;9.978;2024-01-15T09:53:39;2.60;99.90
15241;DHT22;7723;52.170;9.978;2024-01-15T09:56:07;2.60;99.90
15241;DHT22;7723;52.170;9.978;2024-01-15T09:58:35;2.60;99.90
15241;DHT22;7723;52.170;9.978;2024-01-15T10:01:03;2.50;99.90
15241;DHT22;7723;52.170;9.978;2024-01-15T10:03:30;2.50;99.90
15241;DHT22;7723;52.170;9.978;2024-01-15T10:05:59;2.50;99.90
15241;DHT22;7723;52.170;9.978;2024-01-15T10:08:28;2.50;99.90
15241;DHT22;7723;52.170;9.978;2024-01-15T10:10:55;2.50;99.90
15241;DHT22;7723;52.170;9.978;2024-01-15T10:13:22;2.50;99.90
15241;DHT22;7723;52.170;9.978;2024-01-15T10:15:49;2.60;99.90
15241;DHT22;7723;52.170;9.978;2024-01-15T10:18:17;2.60;99.90
15241;DHT22;7723;52.170;9.978;2024-01-15T10:20:44;2.60;99.90
15241;DHT22;7723;52.170;9.978;2024-01-15T10:23:11;2.50;99.90
15241;DHT22;7723;52.170;9.978;2024-01-15T10:25:41;2.20;99.90
15241;DHT22;7723;52.170;9.978;2024-01-15T10:28:08;1.80;99.90
15241;DHT22;7723;52.170;9.978;2024-01-15T10:30:35;1.50;99.90
15241;DHT22;7723;52.170;9.978;2024-01-15T10:33:03;1.40;99.90
15241;DHT22;7723;52.170;9.978;2024-01-15T10:35:31;1.40;99.90
15241;DHT22;7723;52.170;9.978;2024-01-15T10:37:59;1.50;99.90
15241;DHT22;7723;52.170;9.978;2024-01-15T10:40:26;1.50;99.90
15241;DHT22;7723;52.170;9.978;2024-01-15T10:42:55;1.60;99.90
15241;DHT22;7723;52.170;9.978;2024-01-15T10:45:22;1.70;99.90
15241;DHT22;7723;52.170;9.978;2024-01-15T10:47:49;1.80;99.90
15241;DHT22;7723;52.170;9.978;2024-01-15T10:50:17;1.80;99.90
15241;DHT22;7723;52.170;9.978;2024-01-15T10:52:44;1.90;99.90
15241;DHT22;7723;52.170;9.978;2024-01-15T10:55:11;1.90;99.90
15241;DHT22;7723;52.170;9.978;2024-01-15T10:57:39;1.90;99.90
15241;DHT22;7723;52.170;9.978;2024-01-15T11:00:09;1.90;99.90
15241;DHT22;7723;52.170;9.978;2024-01-15T11:02:40;2.00;99.90
15241;DHT22;7723;52.170;9.978;2024-01-15T11:05:08;2.00;99.90
15241;DHT22;7723;52.170;9.978;2024-01-15T11:07:36;2.00;99.90
15241;DHT22;7723;52.170;9.978;2024-01-15T11:10:07;2.00;99.90
15241;DHT22;7723;52.170;9.978;2024-01-15T11:12:36;2.00;99.90
15241;DHT22;7723;52.170;9.978;2024-01-15T11:15:04;2.10;99.90
15241;DHT22;7723;52.170;9.978;2024-01-15T11:18:00;2.00;99.90
15241;DHT22;7723;52.170;9.978;2024-01-15T11:20:29;2.00;99.90
15241;DHT22;7723;52.170;9.978;2024-01-15T11:22:58;2.00;99.90
15241;DHT22;7723;52.170;9.978;2024-01-15T11:25:34;2.00;99.90
15241;DHT22;7723;52.170;9.978;2024-01-15T11:28:03;2.10;99.90
15241;DHT22;7723;52.170;9.978;2024-01-15T11:30:30;2.10;99.90
15241;DHT22;7723;52.170;9.978;2024-01-15T11:33:03;2.10;99.90
15241;DHT22;7723;52.170;9.978;2024-01-15T11:35:48;2.10;99.90
15241;DHT22;7723;52.170;9.978;2024-01-15T11:38:26;2.10;99.90
15241;DHT22;7723;52.170;9.978;2024-01-15T11:40:54;2.10;99.90
15241;DHT22;7723;52.170;9.978;2024-01-15T11:43:22;2.10;99.90
15241;DHT22;7723;52.170;9.978;2024-01-15T11:45:52;2.10;99.90
15241;DHT22;7723;52.170;9.978;2024-01-15T11:48:21;2.20;99.90
15241;DHT22;7723;52.170;9.978;2024-01-15T11:50:50;2.10;99.90
15241;DHT22;7723;52.170;9.978;2024-01-15T11:53:25;2.20;99.90
15241;DHT22;7723;52.170;9.978;2024-01-15T11:55:58;2.20;99.90
15241;DHT22;7723;52.170;9.978;2024-01-15T11:58:26;2.30;99.90
15241;DHT22;7723;52.170;9.978;2024-01-15T12:00:53;2.40;99.90
15241;DHT22;7723;52.170;9.978;2024-01-15T12:03:22;2.50;99.90
15241;DHT22;7723;52.170;9.978;2024-01-15T12:05:49;2.40;99.90
15241;DHT22;7723;52.170;9.978;2024-01-15T12:08:21;2.30;99.90
15241;DHT22;7723;52.170;9.978;2024-01-15T12:10:48;2.30;99.90
15241;DHT22;7723;52.170;9.978;2024-01-15T12:13:15;2.20;99.90
15241;DHT22;7723;52.170;9.978;2024-01-15T12:15:44;2.20;99.90
15241;DHT22;7723;52.170;9.978;2024-01-15T12:18:12;2.20;99.90
15241;DHT22;7723;52.170;9.978;2024-01-15T12:20:42;2.20;99.90
15241;DHT22;7723;52.170;9.978;2024-01-15T12:23:09;2.20;99.90
15241;DHT22;7723;52.170;9.978;2024-01-15T12:25:37;2.20;99.90
15241;DHT22;7723;52.170;9.978;2024-01-15T12:28:05;2.20;99.90
15241;DHT22;7723;52.170;9.978;2024-01-15T12:30:34;2.20;99.90
15241;DHT22;7723;52.170;9.978;2024-01-15T12:33:02;2.30;99.90
15241;DHT22;7723;52.170;9.978;2024-01-15T12:35:30;2.30;99.90
15241;DHT22;7723;52.170;9.978;2024-01-15T12:37:59;2.40;99.90
15241;DHT22;7723;52.170;9.978;2024-01-15T12:40:28;2.40;99.90
15241;DHT22;7723;52.170;9.978;2024-01-15T12:42:55;2.50;99.90
15241;DHT22;7723;52.170;9.978;2024-01-15T12:45:22;2.60;99.90
15241;DHT22;7723;52.170;9.978;2024-01-15T12:47:50;2.50;99.90
15241;DHT22;7723;52.170;9.978;2024-01-15T12:50:18;2.50;99.90
15241;DHT22;7723;52.170;9.978;2024-01-15T12:52:45;2.50;99.90
15241;DHT22;7723;52.170;9.978;2024-01-15T12:55:13;2.40;99.90
15241;DHT22;7723;52.170;9.978;2024-01-15T12:57:41;2.30;99.90
15241;DHT22;7723;52.170;9.978;2024-01-15T13:00:09;2.30;99.90
15241;DHT22;7723;52.170;9.978;2024-01-15T13:02:38;2.20;99.90
15241;DHT22;7723;52.170;9.978;2024-01-15T13:05:09;2.20;99.90
15241;DHT22;7723;52.170;9.978;2024-01-15T13:07:36;2.20;99.90
15241;DHT22;7723;52.170;9.978;2024-01-15T13:10:04;2.10;99.90
15241;DHT22;7723;52.170;9.978;2024-01-15T13:12:33;2.10;99.90
15241;DHT22;7723;52.170;9.978;2024-01-15T13:15:00;2.00;99.90
15241;DHT22;7723;52.170;9.978;2024-01-15T13:17:29;2.00;99.90
15241;DHT22;7723;52.170;9.978;2024-01-15T13:19:56;2.00;99.90
15241;DHT22;7723;52.170;9.978;2024-01-15T13:22:23;2.10;99.90
15241;DHT22;7723;52.170;9.978;2024-01-15T13:24:55;2.10;99.90
15241;DHT22;7723;52.170;9.978;2024-01-15T13:27:22;2.10;99.90
15241;DHT22;7723;52.170;9.978;2024-01-15T13:29:50;2.10;99.90
15241;DHT22;7723;52.170;9.978;2024-01-15T13:32:22;2.10;99.90
15241;DHT22;7723;52.170;9.978;2024-01-15T13:34:51;2.00;99.90
15241;DHT22;7723;52.170;9.978;2024-01-15T13:37:18;1.90;99.90
15241;DHT22;7723;52.170;9.978;2024-01-15T13:39:45;1.90;99.90
15241;DHT22;7723;52.170;9.978;2024-01-15T13:42:12;1.90;99.90
15241;DHT22;7723;52.170;9.978;2024-01-15T13:44:40;1.80;99.90
15241;DHT22;7723;52.170;9.978;2024-01-15T13:47:09;1.80;99.90
15241;DHT22;7723;52.170;9.978;2024-01-15T13:49:36;1.90;99.90
15241;DHT22;7723;52.170;9.978;2024-01-15T13:52:04;1.90;99.90
15241;DHT22;7723;52.170;9.978;2024-01-15T13:54:31;1.90;99.90
15241;DHT22;7723;52.170;9.978;2024-01-15T13:56:58;1.90;99.90
15241;DHT22;7723;52.170;9.978;2024-01-15T13:59:26;1.90;99.90
15241;DHT22;7723;52.170;9.978;2024-01-15T14:01:54;1.90;99.90
15241;DHT22;7723;52.170;9.978;2024-01-15T14:04:22;2.00;99.90
15241;DHT22;7723;52.170;9.978;2024-01-15T14:06:49;2.00;99.90
15241;DHT22;7723;52.170;9.978;2024-01-15T14:09:16;2.00;99.90
15241;DHT22;7723;52.170;9.978;2024-01-15T14:11:44;2.00;99.90
15241;DHT22;7723;52.170;9.978;2024-01-15T14:14:11;2.00;99.90
15241;DHT22;7723;52.170;9.978;2024-01-15T14:16:38;1.90;99.90
15241;DHT22;7723;52.170;9.978;2024-01-15T14:19:05;2.00;99.90
15241;DHT22;7723;52.170;9.978;2024-01-15T14:21:36;2.00;99.90
15241;DHT22;7723;52.170;9.978;2024-01-15T14:24:04;1.90;99.90
15241;DHT22;7723;52.170;9.978;2024-01-15T14:26:31;1.90;99.90
15241;DHT22;7723;52.170;9.978;2024-01-15T14:28:59;1.90;99.90
15241;DHT22;7723;52.170;9.978;2024-01-15T14:31:26;1.70;99.90
15241;DHT22;7723;52.170;9.978;2024-01-15T14:33:54;1.60;99.90
15241;DHT22;7723;52.170;9.978;2024-01-15T14:36:21;1.60;99.90
15241;DHT22;7723;52.170;9.978;2024-01-15T14:38:50;1.50;99.90
15241;DHT22;7723;52.170;9.978;2024-01-15T14:41:17;1.50;99.90
15241;DHT22;7723;52.170;9.978;2024-01-15T14:43:44;1.50;99.90
15241;DHT22;7723;52.170;9.978;2024-01-15T14:46:12;1.50;99.90
15241;DHT22;7723;52.170;9.978;2024-01-15T14:48:39;1.60;99.90
15241;DHT22;7723;52.170;9.978;2024-01-15T14:51:06;1.60;99.90
15241;DHT22;7723;52.170;9.978;2024-01-15T14:53:34;1.70;99.90
15241;DHT22;7723;52.170;9.978;2024-01-15T14:56:03;1.60;99.90
15241;DHT22;7723;52.170;9.978;2024-01-15T14:58:31;1.70;99.90
15241;DHT22;7723;52.170;9.978;2024-01-15T15:00:58;1.70;99.90
15241;DHT22;7723;52.170;9.978;2024-01-15T15:03:25;1.70;99.90
15241;DHT22;7723;52.170;9.978;2024-01-15T15:05:53;1.60;99.90
15241;DHT22;7723;52.170;9.978;2024-01-15T15:08:20;1.40;99.90
15241;DHT22;7723;52.170;9.978;2024-01-15T15:10:47;1.30;99.90
15241;DHT22;7723;52.170;9.978;2024-01-15T15:13:16;1.30;99.90
15241;DHT22;7723;52.170;9.978;2024-01-15T15:15:43;1.20;99.90
15241;DHT22;7723;52.170;9.978;2024-01-15T15:18:10;1.20;99.90
15241;DHT22;7723;52.170;9.978;2024-01-15T15:20:37;1.20;99.90
15241;DHT22;7723;52.170;9.978;2024-01-15T15:23:04;1.20;99.90
15241;DHT22;7723;52.170;9.978;2024-01-15T15:25:34;1.20;99.90
15241;DHT22;7723;52.170;9.978;2024-01-15T15:28:01;1.20;99.90
15241;DHT22;7723;52.170;9.978;2024-01-15T15:30:32;1.20;99.90
15241;DHT22;7723;52.170;9.978;2024-01-15T15:32:59;1.20;99.90
15241;DHT22;7723;52.170;9.978;2024-01-15T15:35:26;1.20;99.90
15241;DHT22;7723;52.170;9.978;2024-01-15T15:37:53;1.20;99.90
15241;DHT22;7723;52.170;9.978;2024-01-15T15:40:20;1.20;99.90
15241;DHT22;7723;52.170;9.978;2024-01-15T15:42:48;1.20;99.90
15241;DHT22;7723;52.170;9.978;2024-01-15T15:45:15;1.20;99.90
15241;DHT22;7723;52.170;9.978;2024-01-15T15:47:43;1.20;99.90
15241;DHT22;7723;52.170;9.978;2024-01-15T15:50:11;1.20;99.90
15241;DHT22;7723;52.170;9.978;2024-01-15T15:52:38;1.20;99.90
15241;DHT22;7723;52.170;9.978;2024-01-15T15:55:05;1.20;99.90
15241;DHT22;7723;52.170;9.978;2024-01-15T15:57:34;1.20;99.90
15241;DHT22;7723;52.170;9.978;2024-01-15T16:00:01;1.20;99.90
15241;DHT22;7723;52.170;9.978;2024-01-15T16:02:29;1.20;99.90
15241;DHT22;7723;52.170;9.978;2024-01-15T16:04:57;1.20;99.90